sensor_id;sensor_type;location;lat;lon;timestamp;P1;durP1;ratioP1;P2;durP2;ratioP2
10465;SDS011;5280;42.600;23.556;2022-12-19T00:00:01;17.43;;;11.83;;
10465;SDS011;5280;42.600;23.556;2022-12-19T00:02:27;16.70;;;11.57;;
10465;SDS011;5280;42.600;23.556;2022-12-19T00:04:54;20.20;;;11.60;;
10465;SDS011;5280;42.600;23.556;2022-12-19T00:07:22;19.93;;;12.57;;
10465;SDS011;5280;42.600;23.556;2022-12-19T00:09:49;17.40;;;11.80;;
10465;SDS011;5280;42.600;23.556;2022-12-19T00:12:16;17.37;;;11.20;;
10465;SDS011;5280;42.600;23.556;2022-12-19T00:14:43;17.90;;;12.43;;
10465;SDS011;5280;42.600;23.556;2022-12-19T00:17:09;21.37;;;13.20;;
10465;SDS011;5280;42.600;23.556;2022-12-19T00:19:36;16.97;;;11.73;;
10465;SDS011;5280;42.600;23.556;2022-12-19T00:22:03;17.60;;;11.70;;
10465;SDS011;5280;42.600;23.556;2022-12-19T00:24:31;17.13;;;11.70;;
10465;SDS011;5280;42.600;23.556;2022-12-19T00:26:58;17.47;;;12.57;;
10465;SDS011;5280;42.600;23.556;2022-12-19T00:29:25;18.67;;;12.57;;
10465;SDS011;5280;42.600;23.556;2022-12-19T00:31:52;20.33;;;13.47;;
10465;SDS011;5280;42.600;23.556;2022-12-19T00:34:19;18.43;;;12.50;;
10465;SDS011;5280;42.600;23.556;2022-12-19T00:36:46;17.53;;;12.47;;
10465;SDS011;5280;42.600;23.556;2022-12-19T00:39:12;20.87;;;13.07;;
10465;SDS011;5280;42.600;23.556;2022-12-19T00:41:41;18.77;;;12.77;;
10465;SDS011;5280;42.600;23.556;2022-12-19T00:44:10;18.87;;;12.77;;
10465;SDS011;5280;42.600;23.556;2022-12-19T00:46:41;18.97;;;12.33;;
10465;SDS011;5280;42.600;23.556;2022-12-19T00:49:08;20.00;;;13.17;;
10465;SDS011;5280;42.600;23.556;2022-12-19T00:51:38;19.57;;;12.20;;
10465;SDS011;5280;42.600;23.556;2022-12-19T00:54:04;18.73;;;13.23;;
10465;SDS011;5280;42.600;23.556;2022-12-19T00:56:32;17.07;;;12.07;;
10465;SDS011;5280;42.600;23.556;2022-12-19T00:59:01;20.27;;;13.43;;
10465;SDS011;5280;42.600;23.556;2022-12-19T01:01:28;17.17;;;13.30;;
10465;SDS011;5280;42.600;23.556;2022-12-19T01:03:58;17.17;;;12.03;;
10465;SDS011;5280;42.600;23.556;2022-12-19T01:06:26;19.27;;;13.30;;
10465;SDS011;5280;42.600;23.556;2022-12-19T01:08:53;20.33;;;11.90;;
10465;SDS011;5280;42.600;23.556;2022-12-19T01:11:20;17.40;;;12.60;;
10465;SDS011;5280;42.600;23.556;2022-12-19T01:14:09;17.50;;;11.87;;
10465;SDS011;5280;42.600;23.556;2022-12-19T01:16:36;18.07;;;12.20;;
10465;SDS011;5280;42.600;23.556;2022-12-19T01:19:03;19.17;;;12.47;;
10465;SDS011;5280;42.600;23.556;2022-12-19T01:21:30;17.00;;;12.03;;
10465;SDS011;5280;42.600;23.556;2022-12-19T01:24:00;16.83;;;12.63;;
10465;SDS011;5280;42.600;23.556;2022-12-19T01:26:26;18.17;;;12.27;;
10465;SDS011;5280;42.600;23.556;2022-12-19T01:28:53;19.73;;;13.37;;
10465;SDS011;5280;42.600;23.556;2022-12-19T01:31:22;17.77;;;11.77;;
10465;SDS011;5280;42.600;23.556;2022-12-19T01:33:49;17.37;;;11.67;;
10465;SDS011;5280;42.600;23.556;2022-12-19T01:36:15;18.23;;;11.83;;
10465;SDS011;5280;42.600;23.556;2022-12-19T01:38:42;17.93;;;12.00;;
10465;SDS011;5280;42.600;23.556;2022-12-19T01:41:09;17.17;;;11.80;;
10465;SDS011;5280;42.600;23.556;2022-12-19T01:46:24;18.60;;;12.00;;
10465;SDS011;5280;42.600;23.556;2022-12-19T01:48:53;17.17;;;11.90;;
10465;SDS011;5280;42.600;23.556;2022-12-19T01:51:21;17.97;;;12.40;;
10465;SDS011;5280;42.600;23.556;2022-12-19T01:53:50;17.73;;;13.10;;
10465;SDS011;5280;42.600;23.556;2022-12-19T01:56:22;19.03;;;12.60;;
10465;SDS011;5280;42.600;23.556;2022-12-19T01:58:53;19.43;;;12.83;;
10465;SDS011;5280;42.600;23.556;2022-12-19T02:01:25;17.97;;;12.27;;
10465;SDS011;5280;42.600;23.556;2022-12-19T02:03:52;17.03;;;11.87;;
10465;SDS011;5280;42.600;23.556;2022-12-19T02:06:20;18.30;;;12.20;;
10465;SDS011;5280;42.600;23.556;2022-12-19T02:08:47;17.43;;;11.63;;
10465;SDS011;5280;42.600;23.556;2022-12-19T02:11:15;18.43;;;12.10;;
10465;SDS011;5280;42.600;23.556;2022-12-19T02:13:42;15.90;;;11.37;;
10465;SDS011;5280;42.600;23.556;2022-12-19T02:16:12;18.03;;;12.67;;
10465;SDS011;5280;42.600;23.556;2022-12-19T02:18:51;17.70;;;12.43;;
10465;SDS011;5280;42.600;23.556;2022-12-19T02:21:24;17.93;;;12.27;;
10465;SDS011;5280;42.600;23.556;2022-12-19T02:30:29;16.20;;;11.37;;
10465;SDS011;5280;42.600;23.556;2022-12-19T02:33:12;20.40;;;12.83;;
10465;SDS011;5280;42.600;23.556;2022-12-19T02:35:45;19.20;;;12.87;;
10465;SDS011;5280;42.600;23.556;2022-12-19T02:38:20;17.67;;;12.27;;
10465;SDS011;5280;42.600;23.556;2022-12-19T02:40:57;17.80;;;12.13;;
10465;SDS011;5280;42.600;23.556;2022-12-19T02:43:31;17.43;;;12.07;;
10465;SDS011;5280;42.600;23.556;2022-12-19T02:46:05;19.37;;;12.93;;
10465;SDS011;5280;42.600;23.556;2022-12-19T02:48:33;18.33;;;12.73;;
10465;SDS011;5280;42.600;23.556;2022-12-19T02:51:00;18.17;;;12.20;;
10465;SDS011;5280;42.600;23.556;2022-12-19T02:53:27;20.23;;;13.37;;
10465;SDS011;5280;42.600;23.556;2022-12-19T02:55:58;18.13;;;12.53;;
10465;SDS011;5280;42.600;23.556;2022-12-19T02:58:48;18.10;;;12.70;;
10465;SDS011;5280;42.600;23.556;2022-12-19T03:01:28;18.80;;;13.07;;
10465;SDS011;5280;42.600;23.556;2022-12-19T03:04:09;18.70;;;12.53;;
10465;SDS011;5280;42.600;23.556;2022-12-19T03:06:44;19.83;;;12.67;;
10465;SDS011;5280;42.600;23.556;2022-12-19T03:09:16;20.10;;;12.77;;
10465;SDS011;5280;42.600;23.556;2022-12-19T03:11:51;22.10;;;13.10;;
10465;SDS011;5280;42.600;23.556;2022-12-19T03:14:26;21.57;;;14.10;;
10465;SDS011;5280;42.600;23.556;2022-12-19T03:16:56;20.43;;;12.73;;
10465;SDS011;5280;42.600;23.556;2022-12-19T03:19:28;22.07;;;13.50;;
10465;SDS011;5280;42.600;23.556;2022-12-19T03:21:56;17.77;;;12.93;;
10465;SDS011;5280;42.600;23.556;2022-12-19T03:24:23;19.77;;;13.03;;
10465;SDS011;5280;42.600;23.556;2022-12-19T03:26:52;20.13;;;13.87;;
10465;SDS011;5280;42.600;23.556;2022-12-19T03:29:27;17.93;;;12.50;;
10465;SDS011;5280;42.600;23.556;2022-12-19T03:32:00;19.43;;;12.93;;
10465;SDS011;5280;42.600;23.556;2022-12-19T03:34:31;18.00;;;12.97;;
10465;SDS011;5280;42.600;23.556;2022-12-19T03:37:02;21.17;;;12.73;;
10465;SDS011;5280;42.600;23.556;2022-12-19T03:39:31;20.27;;;13.53;;
10465;SDS011;5280;42.600;23.556;2022-12-19T03:42:00;20.27;;;13.90;;
10465;SDS011;5280;42.600;23.556;2022-12-19T03:44:46;21.17;;;13.70;;
10465;SDS011;5280;42.600;23.556;2022-12-19T03:47:16;20.07;;;13.73;;
10465;SDS011;5280;42.600;23.556;2022-12-19T03:49:48;21.13;;;13.97;;
10465;SDS011;5280;42.600;23.556;2022-12-19T03:52:20;18.27;;;13.23;;
10465;SDS011;5280;42.600;23.556;2022-12-19T03:54:54;21.27;;;14.00;;
10465;SDS011;5280;42.600;23.556;2022-12-19T03:57:27;22.10;;;13.93;;
10465;SDS011;5280;42.600;23.556;2022-12-19T03:59:59;20.50;;;13.73;;
10465;SDS011;5280;42.600;23.556;2022-12-19T04:02:31;21.40;;;14.17;;
10465;SDS011;5280;42.600;23.556;2022-12-19T04:05:02;17.87;;;12.40;;
10465;SDS011;5280;42.600;23.556;2022-12-19T04:07:35;18.50;;;12.80;;
10465;SDS011;5280;42.600;23.556;2022-12-19T04:10:04;18.07;;;12.70;;
10465;SDS011;5280;42.600;23.556;2022-12-19T04:12:36;19.80;;;13.83;;
10465;SDS011;5280;42.600;23.556;2022-12-19T04:15:06;18.83;;;12.83;;
10465;SDS011;5280;42.600;23.556;2022-12-19T04:17:39;19.57;;;13.73;;
10465;SDS011;5280;42.600;23.556;2022-12-19T04:20:10;21.33;;;13.30;;
10465;SDS011;5280;42.600;23.556;2022-12-19T04:22:40;19.20;;;13.37;;
10465;SDS011;5280;42.600;23.556;2022-12-19T04:25:14;20.20;;;12.93;;
10465;SDS011;5280;42.600;23.556;2022-12-19T04:27:46;19.93;;;14.10;;
10465;SDS011;5280;42.600;23.556;2022-12-19T04:30:17;20.67;;;14.43;;
10465;SDS011;5280;42.600;23.556;2022-12-19T04:32:46;22.43;;;14.23;;
10465;SDS011;5280;42.600;23.556;2022-12-19T04:35:15;21.53;;;13.97;;
10465;SDS011;5280;42.600;23.556;2022-12-19T04:37:42;19.70;;;14.23;;
10465;SDS011;5280;42.600;23.556;2022-12-19T04:40:09;21.77;;;13.93;;
10465;SDS011;5280;42.600;23.556;2022-12-19T04:42:36;21.83;;;13.57;;
10465;SDS011;5280;42.600;23.556;2022-12-19T04:45:04;19.43;;;13.20;;
10465;SDS011;5280;42.600;23.556;2022-12-19T04:47:31;22.70;;;14.47;;
10465;SDS011;5280;42.600;23.556;2022-12-19T04:50:00;21.57;;;13.77;;
10465;SDS011;5280;42.600;23.556;2022-12-19T04:52:26;21.63;;;13.70;;
10465;SDS011;5280;42.600;23.556;2022-12-19T04:54:53;18.43;;;13.17;;
10465;SDS011;5280;42.600;23.556;2022-12-19T04:57:20;20.40;;;13.87;;
10465;SDS011;5280;42.600;23.556;2022-12-19T04:59:47;21.03;;;13.60;;
10465;SDS011;5280;42.600;23.556;2022-12-19T05:02:14;19.30;;;13.63;;
10465;SDS011;5280;42.600;23.556;2022-12-19T05:04:40;19.87;;;14.17;;
10465;SDS011;5280;42.600;23.556;2022-12-19T05:07:09;19.63;;;13.53;;
10465;SDS011;5280;42.600;23.556;2022-12-19T05:09:36;20.83;;;14.17;;
10465;SDS011;5280;42.600;23.556;2022-12-19T05:12:02;23.40;;;14.63;;
10465;SDS011;5280;42.600;23.556;2022-12-19T05:14:34;23.83;;;15.00;;
10465;SDS011;5280;42.600;23.556;2022-12-19T05:17:01;18.33;;;13.67;;
10465;SDS011;5280;42.600;23.556;2022-12-19T05:19:28;20.50;;;13.73;;
10465;SDS011;5280;42.600;23.556;2022-12-19T05:21:55;21.17;;;14.43;;
10465;SDS011;5280;42.600;23.556;2022-12-19T05:24:24;20.97;;;14.27;;
10465;SDS011;5280;42.600;23.556;2022-12-19T05:26:50;21.90;;;14.30;;
10465;SDS011;5280;42.600;23.556;2022-12-19T05:29:17;20.57;;;14.57;;
10465;SDS011;5280;42.600;23.556;2022-12-19T05:31:44;20.03;;;15.00;;
10465;SDS011;5280;42.600;23.556;2022-12-19T05:34:11;23.00;;;15.13;;
10465;SDS011;5280;42.600;23.556;2022-12-19T05:36:37;20.37;;;14.17;;
10465;SDS011;5280;42.600;23.556;2022-12-19T05:39:04;22.83;;;15.00;;
10465;SDS011;5280;42.600;23.556;2022-12-19T05:41:33;22.90;;;14.77;;
10465;SDS011;5280;42.600;23.556;2022-12-19T05:44:00;20.07;;;14.50;;
10465;SDS011;5280;42.600;23.556;2022-12-19T05:46:26;24.00;;;15.23;;
10465;SDS011;5280;42.600;23.556;2022-12-19T05:48:54;20.60;;;13.73;;
10465;SDS011;5280;42.600;23.556;2022-12-19T05:51:21;21.93;;;15.23;;
10465;SDS011;5280;42.600;23.556;2022-12-19T05:53:48;21.60;;;14.40;;
10465;SDS011;5280;42.600;23.556;2022-12-19T05:56:16;21.47;;;14.17;;
10465;SDS011;5280;42.600;23.556;2022-12-19T05:58:45;22.73;;;15.20;;
10465;SDS011;5280;42.600;23.556;2022-12-19T06:01:13;20.47;;;13.43;;
10465;SDS011;5280;42.600;23.556;2022-12-19T06:03:42;24.80;;;15.63;;
10465;SDS011;5280;42.600;23.556;2022-12-19T06:06:11;20.50;;;14.80;;
10465;SDS011;5280;42.600;23.556;2022-12-19T06:08:39;20.77;;;14.30;;
10465;SDS011;5280;42.600;23.556;2022-12-19T06:11:07;22.43;;;15.17;;
10465;SDS011;5280;42.600;23.556;2022-12-19T06:13:35;21.77;;;14.27;;
10465;SDS011;5280;42.600;23.556;2022-12-19T06:16:04;23.47;;;15.50;;
10465;SDS011;5280;42.600;23.556;2022-12-19T06:18:33;21.30;;;14.40;;
10465;SDS011;5280;42.600;23.556;2022-12-19T06:21:01;21.47;;;14.67;;
10465;SDS011;5280;42.600;23.556;2022-12-19T06:23:30;22.03;;;15.67;;
10465;SDS011;5280;42.600;23.556;2022-12-19T06:25:58;22.80;;;15.27;;
10465;SDS011;5280;42.600;23.556;2022-12-19T06:28:26;23.00;;;14.97;;
10465;SDS011;5280;42.600;23.556;2022-12-19T06:30:54;21.30;;;14.50;;
10465;SDS011;5280;42.600;23.556;2022-12-19T06:33:23;20.83;;;14.40;;
10465;SDS011;5280;42.600;23.556;2022-12-19T06:35:55;25.17;;;14.17;;
10465;SDS011;5280;42.600;23.556;2022-12-19T06:38:22;22.70;;;14.70;;
10465;SDS011;5280;42.600;23.556;2022-12-19T06:40:49;22.80;;;14.23;;
10465;SDS011;5280;42.600;23.556;2022-12-19T06:43:34;23.13;;;15.07;;
10465;SDS011;5280;42.600;23.556;2022-12-19T06:46:00;23.03;;;14.87;;
10465;SDS011;5280;42.600;23.556;2022-12-19T06:48:29;21.73;;;14.70;;
10465;SDS011;5280;42.600;23.556;2022-12-19T06:50:56;24.00;;;15.30;;
10465;SDS011;5280;42.600;23.556;2022-12-19T06:53:23;24.57;;;15.00;;
10465;SDS011;5280;42.600;23.556;2022-12-19T06:55:50;22.80;;;14.83;;
10465;SDS011;5280;42.600;23.556;2022-12-19T06:58:19;20.77;;;14.30;;
10465;SDS011;5280;42.600;23.556;2022-12-19T07:00:46;24.83;;;14.83;;
10465;SDS011;5280;42.600;23.556;2022-12-19T07:03:14;23.07;;;15.80;;
10465;SDS011;5280;42.600;23.556;2022-12-19T07:05:44;24.33;;;15.57;;
10465;SDS011;5280;42.600;23.556;2022-12-19T07:08:12;23.33;;;15.43;;
10465;SDS011;5280;42.600;23.556;2022-12-19T07:10:38;22.07;;;15.07;;
10465;SDS011;5280;42.600;23.556;2022-12-19T07:13:05;29.70;;;16.07;;
10465;SDS011;5280;42.600;23.556;2022-12-19T07:15:32;24.30;;;16.70;;
10465;SDS011;5280;42.600;23.556;2022-12-19T07:18:00;25.53;;;16.10;;
10465;SDS011;5280;42.600;23.556;2022-12-19T07:20:30;22.63;;;15.97;;
10465;SDS011;5280;42.600;23.556;2022-12-19T07:23:00;26.37;;;16.90;;
10465;SDS011;5280;42.600;23.556;2022-12-19T07:25:30;25.97;;;16.27;;
10465;SDS011;5280;42.600;23.556;2022-12-19T07:27:57;25.73;;;17.23;;
10465;SDS011;5280;42.600;23.556;2022-12-19T07:30:24;25.97;;;16.77;;
10465;SDS011;5280;42.600;23.556;2022-12-19T07:32:51;28.67;;;17.70;;
10465;SDS011;5280;42.600;23.556;2022-12-19T07:35:18;28.27;;;18.23;;
10465;SDS011;5280;42.600;23.556;2022-12-19T07:37:48;28.20;;;17.83;;
10465;SDS011;5280;42.600;23.556;2022-12-19T07:40:16;28.83;;;18.33;;
10465;SDS011;5280;42.600;23.556;2022-12-19T07:42:43;29.53;;;18.43;;
10465;SDS011;5280;42.600;23.556;2022-12-19T07:45:10;25.27;;;16.93;;
10465;SDS011;5280;42.600;23.556;2022-12-19T07:47:37;29.23;;;18.00;;
10465;SDS011;5280;42.600;23.556;2022-12-19T07:50:04;28.43;;;17.73;;
10465;SDS011;5280;42.600;23.556;2022-12-19T07:52:31;27.50;;;18.13;;
10465;SDS011;5280;42.600;23.556;2022-12-19T07:54:57;28.70;;;18.40;;
10465;SDS011;5280;42.600;23.556;2022-12-19T07:57:26;30.83;;;19.47;;
10465;SDS011;5280;42.600;23.556;2022-12-19T07:59:53;25.60;;;17.20;;
10465;SDS011;5280;42.600;23.556;2022-12-19T08:02:19;25.47;;;16.90;;
10465;SDS011;5280;42.600;23.556;2022-12-19T08:04:46;27.03;;;17.87;;
10465;SDS011;5280;42.600;23.556;2022-12-19T08:07:14;25.80;;;16.83;;
10465;SDS011;5280;42.600;23.556;2022-12-19T08:09:41;26.60;;;17.60;;
10465;SDS011;5280;42.600;23.556;2022-12-19T08:12:08;29.20;;;18.17;;
10465;SDS011;5280;42.600;23.556;2022-12-19T08:14:37;26.63;;;17.27;;
10465;SDS011;5280;42.600;23.556;2022-12-19T08:17:03;28.83;;;18.77;;
10465;SDS011;5280;42.600;23.556;2022-12-19T08:19:30;26.73;;;17.20;;
10465;SDS011;5280;42.600;23.556;2022-12-19T08:21:57;28.10;;;18.57;;
10465;SDS011;5280;42.600;23.556;2022-12-19T08:24:24;28.63;;;17.43;;
10465;SDS011;5280;42.600;23.556;2022-12-19T08:26:51;23.90;;;17.33;;
10465;SDS011;5280;42.600;23.556;2022-12-19T08:29:17;24.97;;;16.37;;
10465;SDS011;5280;42.600;23.556;2022-12-19T08:31:46;24.50;;;16.30;;
10465;SDS011;5280;42.600;23.556;2022-12-19T08:34:13;25.00;;;16.70;;
10465;SDS011;5280;42.600;23.556;2022-12-19T08:36:40;25.30;;;16.90;;
10465;SDS011;5280;42.600;23.556;2022-12-19T08:39:06;21.27;;;13.43;;
10465;SDS011;5280;42.600;23.556;2022-12-19T08:41:33;22.23;;;14.63;;
10465;SDS011;5280;42.600;23.556;2022-12-19T08:44:00;18.90;;;12.17;;
10465;SDS011;5280;42.600;23.556;2022-12-19T08:46:27;20.63;;;12.37;;
10465;SDS011;5280;42.600;23.556;2022-12-19T08:48:56;18.50;;;11.93;;
10465;SDS011;5280;42.600;23.556;2022-12-19T08:51:23;18.83;;;12.27;;
10465;SDS011;5280;42.600;23.556;2022-12-19T08:53:50;17.93;;;11.80;;
10465;SDS011;5280;42.600;23.556;2022-12-19T08:56:18;19.40;;;12.43;;
10465;SDS011;5280;42.600;23.556;2022-12-19T08:58:49;18.57;;;11.80;;
10465;SDS011;5280;42.600;23.556;2022-12-19T09:01:18;17.17;;;11.67;;
10465;SDS011;5280;42.600;23.556;2022-12-19T09:03:48;19.20;;;11.90;;
10465;SDS011;5280;42.600;23.556;2022-12-19T09:06:16;20.10;;;11.47;;
10465;SDS011;5280;42.600;23.556;2022-12-19T09:08:43;20.30;;;11.63;;
10465;SDS011;5280;42.600;23.556;2022-12-19T09:11:11;19.73;;;11.97;;
10465;SDS011;5280;42.600;23.556;2022-12-19T09:13:40;20.00;;;12.50;;
10465;SDS011;5280;42.600;23.556;2022-12-19T09:16:09;21.13;;;12.23;;
10465;SDS011;5280;42.600;23.556;2022-12-19T09:18:38;19.47;;;12.00;;
10465;SDS011;5280;42.600;23.556;2022-12-19T09:21:06;19.07;;;12.70;;
10465;SDS011;5280;42.600;23.556;2022-12-19T09:23:34;19.63;;;12.53;;
10465;SDS011;5280;42.600;23.556;2022-12-19T09:26:02;23.07;;;14.17;;
10465;SDS011;5280;42.600;23.556;2022-12-19T09:28:31;22.13;;;13.33;;
10465;SDS011;5280;42.600;23.556;2022-12-19T09:30:59;22.30;;;14.10;;
10465;SDS011;5280;42.600;23.556;2022-12-19T09:33:28;22.37;;;14.10;;
10465;SDS011;5280;42.600;23.556;2022-12-19T09:35:57;20.10;;;13.23;;
10465;SDS011;5280;42.600;23.556;2022-12-19T09:38:25;22.80;;;14.50;;
10465;SDS011;5280;42.600;23.556;2022-12-19T09:41:00;20.17;;;13.57;;
10465;SDS011;5280;42.600;23.556;2022-12-19T09:43:43;20.50;;;12.67;;
10465;SDS011;5280;42.600;23.556;2022-12-19T09:46:26;21.27;;;13.60;;
10465;SDS011;5280;42.600;23.556;2022-12-19T09:49:08;21.23;;;13.00;;
10465;SDS011;5280;42.600;23.556;2022-12-19T09:51:37;18.53;;;12.07;;
10465;SDS011;5280;42.600;23.556;2022-12-19T09:54:10;19.17;;;11.87;;
10465;SDS011;5280;42.600;23.556;2022-12-19T09:56:43;18.53;;;11.90;;
10465;SDS011;5280;42.600;23.556;2022-12-19T09:59:11;17.10;;;12.20;;
10465;SDS011;5280;42.600;23.556;2022-12-19T10:01:47;21.87;;;13.50;;
10465;SDS011;5280;42.600;23.556;2022-12-19T10:04:20;22.17;;;14.10;;
10465;SDS011;5280;42.600;23.556;2022-12-19T10:06:50;22.77;;;14.40;;
10465;SDS011;5280;42.600;23.556;2022-12-19T10:09:18;21.23;;;14.73;;
10465;SDS011;5280;42.600;23.556;2022-12-19T10:11:56;21.83;;;14.60;;
10465;SDS011;5280;42.600;23.556;2022-12-19T10:14:38;19.43;;;14.40;;
10465;SDS011;5280;42.600;23.556;2022-12-19T10:17:16;22.43;;;14.40;;
10465;SDS011;5280;42.600;23.556;2022-12-19T10:19:55;20.40;;;13.17;;
10465;SDS011;5280;42.600;23.556;2022-12-19T10:22:37;19.13;;;12.20;;
10465;SDS011;5280;42.600;23.556;2022-12-19T10:25:17;18.83;;;13.03;;
10465;SDS011;5280;42.600;23.556;2022-12-19T10:27:58;17.97;;;13.10;;
10465;SDS011;5280;42.600;23.556;2022-12-19T10:30:34;19.87;;;12.40;;
10465;SDS011;5280;42.600;23.556;2022-12-19T10:33:11;17.50;;;13.13;;
10465;SDS011;5280;42.600;23.556;2022-12-19T10:35:45;19.47;;;13.03;;
10465;SDS011;5280;42.600;23.556;2022-12-19T10:38:19;19.23;;;13.30;;
10465;SDS011;5280;42.600;23.556;2022-12-19T10:40:51;18.90;;;12.70;;
10465;SDS011;5280;42.600;23.556;2022-12-19T10:43:24;18.97;;;12.40;;
10465;SDS011;5280;42.600;23.556;2022-12-19T10:46:00;17.00;;;11.63;;
10465;SDS011;5280;42.600;23.556;2022-12-19T10:48:36;16.37;;;11.73;;
10465;SDS011;5280;42.600;23.556;2022-12-19T10:51:03;18.37;;;11.43;;
10465;SDS011;5280;42.600;23.556;2022-12-19T10:53:30;16.90;;;10.73;;
10465;SDS011;5280;42.600;23.556;2022-12-19T10:55:59;12.83;;;9.47;;
10465;SDS011;5280;42.600;23.556;2022-12-19T10:58:31;12.87;;;9.90;;
10465;SDS011;5280;42.600;23.556;2022-12-19T11:01:03;10.90;;;8.40;;
10465;SDS011;5280;42.600;23.556;2022-12-19T11:03:36;11.40;;;8.10;;
10465;SDS011;5280;42.600;23.556;2022-12-19T11:06:04;11.40;;;8.63;;
10465;SDS011;5280;42.600;23.556;2022-12-19T11:08:32;10.90;;;8.07;;
10465;SDS011;5280;42.600;23.556;2022-12-19T11:11:09;10.67;;;8.47;;
10465;SDS011;5280;42.600;23.556;2022-12-19T11:13:39;10.23;;;7.60;;
10465;SDS011;5280;42.600;23.556;2022-12-19T11:16:13;9.07;;;7.33;;
10465;SDS011;5280;42.600;23.556;2022-12-19T11:18:47;9.70;;;7.57;;
10465;SDS011;5280;42.600;23.556;2022-12-19T11:21:15;12.53;;;8.17;;
10465;SDS011;5280;42.600;23.556;2022-12-19T11:23:46;8.50;;;6.87;;
10465;SDS011;5280;42.600;23.556;2022-12-19T11:26:25;10.53;;;7.73;;
10465;SDS011;5280;42.600;23.556;2022-12-19T11:28:56;9.80;;;7.60;;
10465;SDS011;5280;42.600;23.556;2022-12-19T11:31:28;11.43;;;8.57;;
10465;SDS011;5280;42.600;23.556;2022-12-19T11:34:01;11.63;;;8.10;;
10465;SDS011;5280;42.600;23.556;2022-12-19T11:36:33;10.37;;;7.33;;
10465;SDS011;5280;42.600;23.556;2022-12-19T11:39:04;10.97;;;7.63;;
10465;SDS011;5280;42.600;23.556;2022-12-19T11:41:36;7.93;;;6.57;;
10465;SDS011;5280;42.600;23.556;2022-12-19T11:44:10;10.20;;;7.03;;
10465;SDS011;5280;42.600;23.556;2022-12-19T11:46:46;9.00;;;7.00;;
10465;SDS011;5280;42.600;23.556;2022-12-19T11:49:22;9.23;;;6.63;;
10465;SDS011;5280;42.600;23.556;2022-12-19T11:51:55;10.90;;;7.20;;
10465;SDS011;5280;42.600;23.556;2022-12-19T11:54:26;9.27;;;6.63;;
10465;SDS011;5280;42.600;23.556;2022-12-19T11:56:57;9.60;;;6.80;;
10465;SDS011;5280;42.600;23.556;2022-12-19T11:59:28;8.73;;;6.40;;
10465;SDS011;5280;42.600;23.556;2022-12-19T12:01:59;9.70;;;6.83;;
10465;SDS011;5280;42.600;23.556;2022-12-19T12:04:48;9.53;;;7.13;;
10465;SDS011;5280;42.600;23.556;2022-12-19T12:07:25;8.43;;;6.53;;
10465;SDS011;5280;42.600;23.556;2022-12-19T12:09:59;11.07;;;7.77;;
10465;SDS011;5280;42.600;23.556;2022-12-19T12:12:28;10.40;;;7.73;;
10465;SDS011;5280;42.600;23.556;2022-12-19T12:15:08;9.47;;;7.27;;
10465;SDS011;5280;42.600;23.556;2022-12-19T12:17:46;10.87;;;8.27;;
10465;SDS011;5280;42.600;23.556;2022-12-19T12:20:22;9.07;;;7.17;;
10465;SDS011;5280;42.600;23.556;2022-12-19T12:23:01;10.00;;;7.60;;
10465;SDS011;5280;42.600;23.556;2022-12-19T12:25:42;9.90;;;7.60;;
10465;SDS011;5280;42.600;23.556;2022-12-19T12:28:23;9.93;;;6.93;;
10465;SDS011;5280;42.600;23.556;2022-12-19T12:37:06;9.33;;;6.80;;
10465;SDS011;5280;42.600;23.556;2022-12-19T12:39:43;9.90;;;7.10;;
10465;SDS011;5280;42.600;23.556;2022-12-19T12:42:23;10.57;;;6.90;;
10465;SDS011;5280;42.600;23.556;2022-12-19T12:45:03;8.57;;;6.33;;
10465;SDS011;5280;42.600;23.556;2022-12-19T12:47:43;9.97;;;7.13;;
10465;SDS011;5280;42.600;23.556;2022-12-19T12:50:14;9.20;;;7.10;;
10465;SDS011;5280;42.600;23.556;2022-12-19T12:52:44;9.73;;;6.93;;
10465;SDS011;5280;42.600;23.556;2022-12-19T12:55:17;11.37;;;7.10;;
10465;SDS011;5280;42.600;23.556;2022-12-19T12:57:47;10.93;;;7.50;;
10465;SDS011;5280;42.600;23.556;2022-12-19T13:00:22;11.43;;;7.57;;
10465;SDS011;5280;42.600;23.556;2022-12-19T13:02:56;11.87;;;7.73;;
10465;SDS011;5280;42.600;23.556;2022-12-19T13:05:40;10.60;;;7.40;;
10465;SDS011;5280;42.600;23.556;2022-12-19T13:08:23;10.97;;;7.83;;
10465;SDS011;5280;42.600;23.556;2022-12-19T13:10:58;10.77;;;7.73;;
10465;SDS011;5280;42.600;23.556;2022-12-19T13:13:46;11.93;;;8.90;;
10465;SDS011;5280;42.600;23.556;2022-12-19T13:19:19;11.53;;;8.40;;
10465;SDS011;5280;42.600;23.556;2022-12-19T13:24:48;10.47;;;8.00;;
10465;SDS011;5280;42.600;23.556;2022-12-19T13:27:36;11.10;;;8.47;;
10465;SDS011;5280;42.600;23.556;2022-12-19T13:30:18;9.43;;;7.97;;
10465;SDS011;5280;42.600;23.556;2022-12-19T13:35:38;10.97;;;8.37;;
10465;SDS011;5280;42.600;23.556;2022-12-19T13:38:15;11.87;;;8.33;;
10465;SDS011;5280;42.600;23.556;2022-12-19T13:40:57;13.30;;;8.80;;
10465;SDS011;5280;42.600;23.556;2022-12-19T13:43:30;10.30;;;7.60;;
10465;SDS011;5280;42.600;23.556;2022-12-19T13:46:22;11.40;;;8.03;;
10465;SDS011;5280;42.600;23.556;2022-12-19T13:48:55;15.17;;;9.30;;
10465;SDS011;5280;42.600;23.556;2022-12-19T13:51:40;11.73;;;8.47;;
10465;SDS011;5280;42.600;23.556;2022-12-19T13:54:19;11.07;;;8.20;;
10465;SDS011;5280;42.600;23.556;2022-12-19T13:56:51;10.63;;;7.90;;
10465;SDS011;5280;42.600;23.556;2022-12-19T13:59:19;12.50;;;8.47;;
10465;SDS011;5280;42.600;23.556;2022-12-19T14:01:49;11.80;;;8.43;;
10465;SDS011;5280;42.600;23.556;2022-12-19T14:04:24;12.03;;;7.77;;
10465;SDS011;5280;42.600;23.556;2022-12-19T14:06:56;10.63;;;7.63;;
10465;SDS011;5280;42.600;23.556;2022-12-19T14:09:26;9.40;;;6.47;;
10465;SDS011;5280;42.600;23.556;2022-12-19T14:11:55;10.17;;;7.33;;
10465;SDS011;5280;42.600;23.556;2022-12-19T14:14:25;9.97;;;7.40;;
10465;SDS011;5280;42.600;23.556;2022-12-19T14:17:19;11.27;;;7.30;;
10465;SDS011;5280;42.600;23.556;2022-12-19T14:19:47;10.63;;;6.47;;
10465;SDS011;5280;42.600;23.556;2022-12-19T14:22:20;10.10;;;7.17;;
10465;SDS011;5280;42.600;23.556;2022-12-19T14:24:52;8.30;;;6.63;;
10465;SDS011;5280;42.600;23.556;2022-12-19T14:27:20;9.30;;;6.77;;
10465;SDS011;5280;42.600;23.556;2022-12-19T14:29:53;8.47;;;6.60;;
10465;SDS011;5280;42.600;23.556;2022-12-19T14:32:21;8.97;;;6.50;;
10465;SDS011;5280;42.600;23.556;2022-12-19T14:34:50;10.30;;;6.53;;
10465;SDS011;5280;42.600;23.556;2022-12-19T14:37:28;10.87;;;7.77;;
10465;SDS011;5280;42.600;23.556;2022-12-19T14:39:58;9.27;;;6.50;;
10465;SDS011;5280;42.600;23.556;2022-12-19T14:42:31;9.43;;;6.83;;
10465;SDS011;5280;42.600;23.556;2022-12-19T14:45:32;9.10;;;6.80;;
10465;SDS011;5280;42.600;23.556;2022-12-19T14:48:01;10.30;;;6.40;;
10465;SDS011;5280;42.600;23.556;2022-12-19T14:50:48;12.40;;;7.33;;
10465;SDS011;5280;42.600;23.556;2022-12-19T14:53:16;9.30;;;6.50;;
10465;SDS011;5280;42.600;23.556;2022-12-19T14:55:44;10.03;;;6.47;;
10465;SDS011;5280;42.600;23.556;2022-12-19T14:58:14;9.70;;;6.47;;
10465;SDS011;5280;42.600;23.556;2022-12-19T15:00:44;9.73;;;6.87;;
10465;SDS011;5280;42.600;23.556;2022-12-19T15:03:17;11.47;;;6.97;;
10465;SDS011;5280;42.600;23.556;2022-12-19T15:05:47;8.27;;;6.53;;
10465;SDS011;5280;42.600;23.556;2022-12-19T15:08:15;7.63;;;6.10;;
10465;SDS011;5280;42.600;23.556;2022-12-19T15:10:56;7.33;;;5.50;;